Seligman, Missouri
Current Conditions -  °F | °C
As of 7:57 PM on Sunday 21 Dec 2014 (Local Time) from KROG Reporting Station
Overcast Overcast  
Wind Chill: 37°   Ceiling: 2500
Heat Index: 43°   Visibility: 10mi
Dew Point: 37°   Wind: 12mph
Humidity: 80%   Direction: 130°SE
Pressure: 29.85"   Gusts: NA
Location:  36.52°N, 93.94°W
Report Text: KROG 220157Z AUTO 13010KT 10SM OVC025 06/03 A2985 RMK AO2 SLP113 T00610028
Loading
Personal Weather Stations






























Interactive Weather Map New forecast layout! Learn more

10-Day Weather Forecast

Advertisements
Track Severe Weather on mobile